Long Ranger — WCZ8444 — position and weather

sailwx.info

Track history (hours):
 
Tides and Currents Weather Stations Pressure Air Temp Water Temp Dewpoint Dewpoint Depression Visibility Wind Speed Wind Dir Waves Ship Positions

Long Ranger

Owner: HILL, WAYNE G, SEATTLE, WA. More information available from US FCC via Universal Licensing System and Coast Guard Vessel Documentation Center.

Last reported at 2018-Aug-20 13:58 UTC. Time now 2018-Aug-20 16:20 UTC.
Position N 48°27' W 122°57'.

Length 17 m.

Type: Pleasure craft. MMSI: 367409830.

Date/timePositionNaut miles runAvg speedWind from/ knotsBaromVisibWave heightAir tempDewpointWater temp
2018-Aug-20 13:58N 48°27' W 122°57'510.7
2018-Aug-20 13:30N 48°32' W 122°58'2 3.3
2018-Aug-20 12:50N 48°32' W 123°01'0 0.0
2018-Aug-20 12:26N 48°32' W 123°01'0 0.0
2018-Aug-20 12:02N 48°32' W 123°01'0 0.0
2018-Aug-20 11:59N 48°32' W 123°01'0 0.0
2018-Aug-20 11:29N 48°32' W 123°01'0 0.0
2018-Aug-20 11:02N 48°32' W 123°01'0 0.0
2018-Aug-20 10:59N 48°32' W 123°01'0 0.0
2018-Aug-20 10:29N 48°32' W 123°01'0 0.0
2018-Aug-20 10:02N 48°32' W 123°01'0 0.0
2018-Aug-20 09:59N 48°32' W 123°01'0 0.0
2018-Aug-20 09:26N 48°32' W 123°01'0 0.0
2018-Aug-20 09:02N 48°32' W 123°01'0 0.1
2018-Aug-20 08:59N 48°32' W 123°01'0 0.0
2018-Aug-20 08:20N 48°32' W 123°01'0 0.0
2018-Aug-20 08:02N 48°32' W 123°01'0 0.0
2018-Aug-20 07:56N 48°32' W 123°01'0 0.0
2018-Aug-20 07:29N 48°32' W 123°01'0 0.0
2018-Aug-20 07:02N 48°32' W 123°01'0 0.0
2018-Aug-20 06:59N 48°32' W 123°01'0 0.0
2018-Aug-20 06:26N 48°32' W 123°01'0 0.0
2018-Aug-20 06:02N 48°32' W 123°01'0 0.0
2018-Aug-20 05:50N 48°32' W 123°01'0 0.0
2018-Aug-20 05:26N 48°32' W 123°01'0 0.0
2018-Aug-20 05:02N 48°32' W 123°01'0 0.0
2018-Aug-20 04:59N 48°32' W 123°01'0 0.0
2018-Aug-20 04:44N 48°32' W 123°01'0 0.0
2018-Aug-20 04:26N 48°32' W 123°01'0 0.0
2018-Aug-20 03:56N 48°32' W 123°01'0 0.0
2018-Aug-20 03:29N 48°32' W 123°01'0 0.0
2018-Aug-20 02:56N 48°32' W 123°01'0 0.0
2018-Aug-20 02:29N 48°32' W 123°01'0 0.0
2018-Aug-20 01:50N 48°32' W 123°01'0 0.0
2018-Aug-20 01:20N 48°32' W 123°01'0 0.0
2018-Aug-20 00:56N 48°32' W 123°01'0 0.0
2018-Aug-20 00:29N 48°32' W 123°01'0 0.0
2018-Aug-19 23:59N 48°32' W 123°01'0 0.0
2018-Aug-19 23:29N 48°32' W 123°01'0 0.0
2018-Aug-19 22:59N 48°32' W 123°01'0 0.0
2018-Aug-19 22:26N 48°32' W 123°01'0 0.0
2018-Aug-19 21:56N 48°32' W 123°01'0 0.0
2018-Aug-19 21:26N 48°32' W 123°01'0 0.0
2018-Aug-19 20:50N 48°32' W 123°01'0 0.1
2018-Aug-19 19:55N 48°32' W 123°01'29 8.1
2018-Aug-19 16:18N 48°57' W 123°24'410.4
2018-Aug-19 15:57N 49°00' W 123°28'510.3
2018-Aug-19 15:28N 49°04' W 123°32'510.5
2018-Aug-19 14:59N 49°08' W 123°37'510.2
2018-Aug-19 14:29N 49°11' W 123°44'8 4.7
2018-Aug-19 12:45N 49°10' W 123°56'58 3.4
2018-Aug-18 19:26N 49°50' W 125°01'7 9.8
2018-Aug-18 18:44N 49°55' W 125°08'810.9
2018-Aug-18 18:00N 50°02' W 125°14'611.8
2018-Aug-18 17:30N 50°07' W 125°19'91 3.9
2018-Aug-17 18:18N 50°49' W 127°27'3 9.0
2018-Aug-17 17:59N 50°51' W 127°30'3 5.3
2018-Aug-17 17:28N 50°52' W 127°34'4 8.7
2018-Aug-17 16:58N 50°55' W 127°39'4 9.2
2018-Aug-17 16:30N 50°58' W 127°44'5 9.1
2018-Aug-17 16:00N 51°02' W 127°46'27 9.4
2018-Aug-17 13:07N 51°29' W 127°52'2 9.7
2018-Aug-17 12:54N 51°31' W 127°53'2 0.4
2018-Aug-17 08:37N 51°32' W 127°56'0 0.0
2018-Aug-16 21:44N 51°32' W 127°56'0 0.2
2018-Aug-16 21:30N 51°32' W 127°56'4 6.7
2018-Aug-16 20:56N 51°35' W 127°53'4 9.6
2018-Aug-16 20:30N 51°39' W 127°55'5 9.7
2018-Aug-16 20:00N 51°44' W 127°56'5 9.7
2018-Aug-16 19:30N 51°49' W 127°57'7 9.5
2018-Aug-16 18:49N 51°55' W 127°57'3 9.8
2018-Aug-16 18:28N 51°59' W 127°55'7 7.7
2018-Aug-16 17:32N 52°04' W 128°03'110.4
2018-Aug-16 17:29N 52°04' W 128°03'4 8.5
2018-Aug-16 16:59N 52°08' W 128°08'126 2.8
2018-Aug-14 19:40N 53°52' W 130°05'2 9.8
2018-Aug-14 19:28N 53°54' W 130°07'4 8.9
2018-Aug-14 19:00N 53°57' W 130°12'4 8.8
2018-Aug-14 18:30N 54°01' W 130°14'5 9.4
2018-Aug-14 18:00N 54°05' W 130°18'5 9.4
2018-Aug-14 17:30N 54°08' W 130°24'5 9.4
2018-Aug-14 17:00N 54°12' W 130°28'5 9.6
2018-Aug-14 16:30N 54°16' W 130°32'5 9.1
2018-Aug-14 15:59N 54°21' W 130°35'5 9.4
2018-Aug-14 15:28N 54°25' W 130°38'  
Track history (hours):
 
Tides and Currents Weather Stations Pressure Air Temp Water Temp Dewpoint Dewpoint Depression Visibility Wind Speed Wind Dir Waves Ship Positions

Long Ranger

Owner: HILL, WAYNE G, SEATTLE, WA. More information available from US FCC via Universal Licensing System and Coast Guard Vessel Documentation Center.

Last reported at 2018-Aug-20 13:58 UTC. Time now 2018-Aug-20 16:20 UTC.
Position N 48°27' W 122°57'.

Length 17 m.

Type: Pleasure craft. MMSI: 367409830.

Date/timePositionNaut miles runAvg speedWind from/ knotsBaromVisibWave heightAir tempDewpointWater temp
2018-Aug-20 13:58N 48°27' W 122°57'510.7
2018-Aug-20 13:30N 48°32' W 122°58'2 3.3
2018-Aug-20 12:50N 48°32' W 123°01'0 0.0
2018-Aug-20 12:26N 48°32' W 123°01'0 0.0
2018-Aug-20 12:02N 48°32' W 123°01'0 0.0
2018-Aug-20 11:59N 48°32' W 123°01'0 0.0
2018-Aug-20 11:29N 48°32' W 123°01'0 0.0
2018-Aug-20 11:02N 48°32' W 123°01'0 0.0
2018-Aug-20 10:59N 48°32' W 123°01'0 0.0
2018-Aug-20 10:29N 48°32' W 123°01'0 0.0
2018-Aug-20 10:02N 48°32' W 123°01'0 0.0
2018-Aug-20 09:59N 48°32' W 123°01'0 0.0
2018-Aug-20 09:26N 48°32' W 123°01'0 0.0
2018-Aug-20 09:02N 48°32' W 123°01'0 0.1
2018-Aug-20 08:59N 48°32' W 123°01'0 0.0
2018-Aug-20 08:20N 48°32' W 123°01'0 0.0
2018-Aug-20 08:02N 48°32' W 123°01'0 0.0
2018-Aug-20 07:56N 48°32' W 123°01'0 0.0
2018-Aug-20 07:29N 48°32' W 123°01'0 0.0
2018-Aug-20 07:02N 48°32' W 123°01'0 0.0
2018-Aug-20 06:59N 48°32' W 123°01'0 0.0
2018-Aug-20 06:26N 48°32' W 123°01'0 0.0
2018-Aug-20 06:02N 48°32' W 123°01'0 0.0
2018-Aug-20 05:50N 48°32' W 123°01'0 0.0
2018-Aug-20 05:26N 48°32' W 123°01'0 0.0
2018-Aug-20 05:02N 48°32' W 123°01'0 0.0
2018-Aug-20 04:59N 48°32' W 123°01'0 0.0
2018-Aug-20 04:44N 48°32' W 123°01'0 0.0
2018-Aug-20 04:26N 48°32' W 123°01'0 0.0
2018-Aug-20 03:56N 48°32' W 123°01'0 0.0
2018-Aug-20 03:29N 48°32' W 123°01'0 0.0
2018-Aug-20 02:56N 48°32' W 123°01'0 0.0
2018-Aug-20 02:29N 48°32' W 123°01'0 0.0
2018-Aug-20 01:50N 48°32' W 123°01'0 0.0
2018-Aug-20 01:20N 48°32' W 123°01'0 0.0
2018-Aug-20 00:56N 48°32' W 123°01'0 0.0
2018-Aug-20 00:29N 48°32' W 123°01'0 0.0
2018-Aug-19 23:59N 48°32' W 123°01'0 0.0
2018-Aug-19 23:29N 48°32' W 123°01'0 0.0
2018-Aug-19 22:59N 48°32' W 123°01'0 0.0
2018-Aug-19 22:26N 48°32' W 123°01'0 0.0
2018-Aug-19 21:56N 48°32' W 123°01'0 0.0
2018-Aug-19 21:26N 48°32' W 123°01'0 0.0
2018-Aug-19 20:50N 48°32' W 123°01'0 0.1
2018-Aug-19 19:55N 48°32' W 123°01'29 8.1
2018-Aug-19 16:18N 48°57' W 123°24'410.4
2018-Aug-19 15:57N 49°00' W 123°28'510.3
2018-Aug-19 15:28N 49°04' W 123°32'510.5
2018-Aug-19 14:59N 49°08' W 123°37'510.2
2018-Aug-19 14:29N 49°11' W 123°44'8 4.7
2018-Aug-19 12:45N 49°10' W 123°56'58 3.4
2018-Aug-18 19:26N 49°50' W 125°01'7 9.8
2018-Aug-18 18:44N 49°55' W 125°08'810.9
2018-Aug-18 18:00N 50°02' W 125°14'611.8
2018-Aug-18 17:30N 50°07' W 125°19'91 3.9
2018-Aug-17 18:18N 50°49' W 127°27'3 9.0
2018-Aug-17 17:59N 50°51' W 127°30'3 5.3
2018-Aug-17 17:28N 50°52' W 127°34'4 8.7
2018-Aug-17 16:58N 50°55' W 127°39'4 9.2
2018-Aug-17 16:30N 50°58' W 127°44'5 9.1
2018-Aug-17 16:00N 51°02' W 127°46'27 9.4
2018-Aug-17 13:07N 51°29' W 127°52'2 9.7
2018-Aug-17 12:54N 51°31' W 127°53'2 0.4
2018-Aug-17 08:37N 51°32' W 127°56'0 0.0
2018-Aug-16 21:44N 51°32' W 127°56'0 0.2
2018-Aug-16 21:30N 51°32' W 127°56'4 6.7
2018-Aug-16 20:56N 51°35' W 127°53'4 9.6
2018-Aug-16 20:30N 51°39' W 127°55'5 9.7
2018-Aug-16 20:00N 51°44' W 127°56'5 9.7
2018-Aug-16 19:30N 51°49' W 127°57'7 9.5
2018-Aug-16 18:49N 51°55' W 127°57'3 9.8
2018-Aug-16 18:28N 51°59' W 127°55'7 7.7
2018-Aug-16 17:32N 52°04' W 128°03'110.4
2018-Aug-16 17:29N 52°04' W 128°03'4 8.5
2018-Aug-16 16:59N 52°08' W 128°08'126 2.8
2018-Aug-14 19:40N 53°52' W 130°05'2 9.8
2018-Aug-14 19:28N 53°54' W 130°07'4 8.9
2018-Aug-14 19:00N 53°57' W 130°12'4 8.8
2018-Aug-14 18:30N 54°01' W 130°14'5 9.4
2018-Aug-14 18:00N 54°05' W 130°18'5 9.4
2018-Aug-14 17:30N 54°08' W 130°24'5 9.4
2018-Aug-14 17:00N 54°12' W 130°28'5 9.6
2018-Aug-14 16:30N 54°16' W 130°32'5 9.1
2018-Aug-14 15:59N 54°21' W 130°35'5 9.4
2018-Aug-14 15:28N 54°25' W 130°38'  

Dump ship's entire track history